หน้าหลัก
METAR-TAF:

METAR-TAF

ท่าอากาศยาน :

คอรอร์, Babeldaob, ปาเลา

ละติจูด: 07-22N, ลองจิจูด: 134-32E, ความสูง: 54 ม.

การสังเกตสภาพอากาศปัจจุบัน

รายงานได้ทำขึ้นเมื่อ 59 นาทีที่แล้ว ณ เวลา 02:50 UTC
ลม 8 นอตจากตะวันออก/ตะวันออกเฉียงเหนือโดยมีลมกระโชกได้ถึง16 นอต
อุณหภูมิ 31°C
ความชื้น 75%
ความกดอากาศ 1009 hPa
ทัศนวิสัย: 22.5 กม.
มีเมฆกระจายเป็นบางส่วนที่ความสูง 1700 ฟุต
มีเมฆกระจายเป็นบางส่วนที่ความสูง 13000 ฟุต
มีเมฆเป็นส่วนมากเว้นเป็นระยะที่ความสูง 30000 ฟุต

METAR: PTRO 250250Z 06008G16KT 14SM SCT017 SCT130 BKN300 31/26 A2981

เวลา: 12:49 (03:49 UTC)

การพยากรณ์

รายงานได้ทำขึ้นเมื่อ 4 ชั่วโมงและ 14 นาทีที่แล้ว ณ เวลา 23:35 UTC
การพยากรณ์มีผลตั้งแต่วันที่ 25 ณ เวลา 00 UTC จนถึงวันที่ 25 ณ เวลา 24 UTC
ลม 9 นอตจากตะวันออก/ตะวันออกเฉียงเหนือ
ทัศนวิสัย: 10 กม.
มีเมฆน้อยที่ความสูง 1500 ฟุต
มีเมฆกระจายเป็นบางส่วนที่ความสูง 11000 ฟุต
การโปรยปรายในบริเวณใกล้เคียง,

TAF: PTRO 242335Z 2500/2524 07009KT P6SM VCSH FEW015 SCT110

สังเกตการณ์สภาพอากาศและพยากรณ์อากาศของสนามบินมากกว่า 4000 แห่ง (รายงาน METAR และ TAF).

สถานีที่ดูได้จะแสดงไว้ด้วยจุดสีเหลืองและสีแดงบนแผนที่.

เลื่อนเมาส์ไปเหนือจุดเพื่อดูชื่อสถานี.

แล้วคลิกเพื่อดูสังเกตการณ์และการพยากรณ์สภาพอากาศ.

ในการเปลี่ยนแผนที่: คลิกที่ปุ่มสีเขียวที่มีกากบาทสีดำเพื่อซูมเข้า; ที่ปุ่มสีเขียวที่มีขีดเพื่อซูมออก; หรือที่ลูกศรสีเขียวเพื่อไปยังแผนที่ที่อยู่ติดกัน.


METAR-TAF: